Fecha, hora, temperatura, viento dirección y velocidad, humedad y presión.

  • 16-01-2019 16:00:00 | 10.20°C | Sudoeste |5.00 km/h | 53.00% | 0.00 hPa
  • 16-01-2019 15:00:00 | 10.10°C | Sudoeste |8.00 km/h | 56.00% | 0.00 hPa
  • 16-01-2019 14:00:00 | 10.10°C | Sudoeste |6.00 km/h | 60.00% | 0.00 hPa
  • 16-01-2019 13:00:00 | 8.60°C | Sudoeste |9.00 km/h | 62.00% | 0.00 hPa
  • 16-01-2019 12:00:00 | 8.10°C | Sudoeste |5.00 km/h | 68.00% | 0.00 hPa
  • 16-01-2019 11:00:00 | 5.90°C | Sur |2.00 km/h | 70.00% | 0.00 hPa
  • 16-01-2019 10:00:00 | 3.20°C | Sur |2.00 km/h | 83.00% | 0.00 hPa
  • 16-01-2019 09:00:00 | 1.60°C | Sudoeste |2.00 km/h | 86.00% | 0.00 hPa
  • 16-01-2019 08:00:00 | 3.00°C | Calma |0.00 km/h | 74.00% | 0.00 hPa
  • 16-01-2019 07:00:00 | 4.40°C | Nordeste |4.00 km/h | 68.00% | 0.00 hPa
  • 16-01-2019 06:00:00 | 3.60°C | Calma |0.00 km/h | 69.00% | 0.00 hPa
  • 16-01-2019 05:00:00 | 1.80°C | Calma |0.00 km/h | 82.00% | 0.00 hPa
  • 16-01-2019 04:00:00 | 2.70°C | Norte |2.00 km/h | 83.00% | 0.00 hPa
  • 16-01-2019 03:00:00 | 1.10°C | Calma |0.00 km/h | 95.00% | 0.00 hPa
  • 16-01-2019 02:00:00 | 1.90°C | Oeste |2.00 km/h | 94.00% | 0.00 hPa
  • 16-01-2019 01:00:00 | 1.80°C | Calma |0.00 km/h | 94.00% | 0.00 hPa
  • 16-01-2019 00:00:00 | 1.90°C | Calma |0.00 km/h | 96.00% | 0.00 hPa
  • 15-01-2019 23:00:00 | 2.20°C | Noroeste |2.00 km/h | 97.00% | 0.00 hPa
  • 15-01-2019 22:00:00 | 2.70°C | Calma |0.00 km/h | 92.00% | 0.00 hPa
  • 15-01-2019 21:00:00 | 3.20°C | Noroeste |2.00 km/h | 94.00% | 0.00 hPa
  • 15-01-2019 20:00:00 | 3.80°C | Calma |0.00 km/h | 89.00% | 0.00 hPa
  • 15-01-2019 19:00:00 | 4.80°C | Noroeste |2.00 km/h | 86.00% | 0.00 hPa
  • 15-01-2019 18:00:00 | 6.60°C | Calma |0.00 km/h | 81.00% | 0.00 hPa
  • 15-01-2019 17:00:00 | 10.10°C | Sudoeste |3.00 km/h | 66.00% | 0.00 hPa
    • diseño web asturias Información sobre el estado de las mareas, altura de la marejada, temperatura del agua y otros datos de Gijón en Asturias.

      Surf Gijón